createdAt,value
2022-11-03T00:02:21.336Z,100309.28
2022-11-03T00:04:50.159Z,100311.72
2022-11-03T00:07:23.421Z,100314.25
2022-11-03T00:09:52.020Z,100314.59
2022-11-03T00:12:20.870Z,100316.13
2022-11-03T00:14:49.599Z,100323.56
2022-11-03T00:17:18.254Z,100313.53
2022-11-03T00:19:46.947Z,100320.19
2022-11-03T00:22:15.601Z,100314.34
2022-11-03T00:24:44.413Z,100321.25
2022-11-03T00:27:13.153Z,100332.50
2022-11-03T00:29:40.952Z,100326.75
2022-11-03T00:32:09.643Z,100327.78
2022-11-03T00:34:37.450Z,100325.03
2022-11-03T00:37:06.085Z,100310.56
2022-11-03T00:39:37.909Z,100314.19
2022-11-03T00:42:07.928Z,100330.06
2022-11-03T00:44:36.599Z,100323.81
2022-11-03T00:47:04.402Z,100322.75
2022-11-03T00:49:33.101Z,100328.41
2022-11-03T00:52:01.817Z,100329.06
2022-11-03T00:54:29.518Z,100326.22
2022-11-03T00:56:57.493Z,100329.59
2022-11-03T00:59:45.054Z,100333.56
2022-11-03T01:02:15.434Z,100329.13
2022-11-03T01:05:02.699Z,100324.97
2022-11-03T01:07:31.382Z,100317.38
2022-11-03T01:10:00.047Z,100302.69
2022-11-03T01:12:28.788Z,100304.72
2022-11-03T01:14:56.523Z,100308.38
2022-11-03T01:17:29.079Z,100308.38
2022-11-03T01:19:57.233Z,100312.81
2022-11-03T01:22:25.897Z,100319.75
2022-11-03T01:24:54.615Z,100315.25
2022-11-03T01:27:26.450Z,100315.31
2022-11-03T01:29:55.110Z,100310.38
2022-11-03T01:32:23.807Z,100305.31
2022-11-03T01:34:51.548Z,100314.69
2022-11-03T01:37:20.252Z,100317.28
2022-11-03T01:39:48.032Z,100318.84
2022-11-03T01:42:17.754Z,100321.69
2022-11-03T01:44:50.264Z,100310.66
2022-11-03T01:47:33.441Z,100316.63
2022-11-03T01:50:17.304Z,100326.00
2022-11-03T01:52:56.535Z,100314.91
2022-11-03T01:55:35.895Z,100315.94
2022-11-03T01:58:35.025Z,100324.47
2022-11-03T02:01:03.691Z,100330.72
2022-11-03T02:03:42.986Z,100320.22
2022-11-03T02:06:15.485Z,100327.38
2022-11-03T02:08:54.819Z,100326.91
2022-11-03T02:11:42.539Z,100319.41
2022-11-03T02:14:16.498Z,100308.97
2022-11-03T02:16:56.420Z,100326.66
2022-11-03T02:19:59.125Z,100327.00
2022-11-03T02:22:55.556Z,100328.91
2022-11-03T02:25:35.158Z,100324.78
2022-11-03T02:28:05.659Z,100325.78
2022-11-03T02:31:14.688Z,100323.44
2022-11-03T02:34:06.867Z,100313.25
2022-11-03T02:36:47.903Z,100318.38
2022-11-03T02:39:30.424Z,100321.31
2022-11-03T02:42:01.725Z,100313.56
2022-11-03T02:44:35.117Z,100318.53
2022-11-03T02:47:13.253Z,100323.78
2022-11-03T02:49:51.057Z,100326.00
2022-11-03T02:52:41.224Z,100329.25
2022-11-03T02:56:01.546Z,100328.69
2022-11-03T02:59:02.098Z,100328.91
2022-11-03T03:01:47.717Z,100326.50
2022-11-03T03:04:44.198Z,100338.25
2022-11-03T03:07:21.387Z,100328.38
2022-11-03T03:10:12.455Z,100326.81
2022-11-03T03:12:48.787Z,100329.28
2022-11-03T03:15:19.244Z,100331.31
2022-11-03T03:18:15.364Z,100323.69
2022-11-03T03:20:57.951Z,100328.22
2022-11-03T03:23:36.526Z,100324.97
2022-11-03T03:26:41.795Z,100329.16
2022-11-03T03:29:43.698Z,100342.91
2022-11-03T03:32:23.972Z,100334.56
2022-11-03T03:34:55.653Z,100340.72
2022-11-03T03:37:28.193Z,100340.31
2022-11-03T03:40:04.147Z,100329.06
2022-11-03T03:42:35.916Z,100337.22
2022-11-03T03:45:07.104Z,100338.06
2022-11-03T03:47:36.173Z,100336.50
2022-11-03T03:50:06.203Z,100336.81
2022-11-03T03:52:37.159Z,100331.00
2022-11-03T03:55:18.856Z,100336.22
2022-11-03T03:57:46.606Z,100336.69
2022-11-03T04:00:18.146Z,100347.75
2022-11-03T04:02:46.715Z,100347.06
2022-11-03T04:05:14.654Z,100352.53
2022-11-03T04:07:47.256Z,100356.81
2022-11-03T04:10:18.414Z,100361.34
2022-11-03T04:13:06.217Z,100358.25
2022-11-03T04:16:07.327Z,100360.34
2022-11-03T04:18:53.434Z,100373.22
2022-11-03T04:21:40.641Z,100371.13
2022-11-03T04:24:09.327Z,100366.22
2022-11-03T04:26:37.087Z,100362.66
2022-11-03T04:29:10.059Z,100358.88
2022-11-03T04:31:38.148Z,100366.19
2022-11-03T04:34:12.295Z,100364.97
2022-11-03T04:36:40.932Z,100338.81
2022-11-03T04:39:20.865Z,100356.03
2022-11-03T04:41:49.670Z,100360.91
2022-11-03T04:44:18.304Z,100357.09
2022-11-03T04:46:47.254Z,100356.38
2022-11-03T04:49:23.616Z,100350.03
2022-11-03T04:51:53.021Z,100357.69
2022-11-03T04:54:24.386Z,100351.78
2022-11-03T04:56:53.934Z,100351.47
2022-11-03T04:59:22.588Z,100345.41
2022-11-03T05:01:52.539Z,100344.91
2022-11-03T05:04:21.343Z,100347.69
2022-11-03T05:06:54.434Z,100341.28
2022-11-03T05:09:32.654Z,100333.34
2022-11-03T05:12:05.537Z,100338.19
2022-11-03T05:14:35.298Z,100338.81
2022-11-03T05:17:24.149Z,100340.81
2022-11-03T05:20:01.828Z,100351.88
2022-11-03T05:22:36.647Z,100351.00
2022-11-03T05:25:45.888Z,100352.81
2022-11-03T05:28:34.046Z,100349.69
2022-11-03T05:31:26.455Z,100351.19
2022-11-03T05:34:21.266Z,100366.84
2022-11-03T05:36:49.943Z,100362.84
2022-11-03T05:39:41.283Z,100371.28
2022-11-03T05:42:40.297Z,100370.56
2022-11-03T05:45:33.522Z,100367.78
2022-11-03T05:48:13.333Z,100373.56
2022-11-03T05:50:43.670Z,100373.00
2022-11-03T05:53:36.115Z,100380.25
2022-11-03T05:56:12.905Z,100375.47
2022-11-03T05:58:44.592Z,100374.19
2022-11-03T06:01:37.886Z,100373.19
2022-11-03T06:04:37.362Z,100369.69
2022-11-03T06:07:26.636Z,100381.41
2022-11-03T06:09:56.849Z,100383.41
2022-11-03T06:12:27.308Z,100389.78
2022-11-03T06:14:56.103Z,100400.69
2022-11-03T06:17:28.570Z,100408.53
2022-11-03T06:20:01.471Z,100409.31
2022-11-03T06:22:41.625Z,100403.91
2022-11-03T06:25:36.670Z,100405.47
2022-11-03T06:28:12.511Z,100408.59
2022-11-03T06:33:36.487Z,100415.25
2022-11-03T06:36:23.025Z,100408.19
2022-11-03T06:39:01.806Z,100414.50
2022-11-03T06:41:33.525Z,100419.03
2022-11-03T06:44:20.658Z,100420.66
2022-11-03T06:46:49.349Z,100423.13
2022-11-03T06:49:35.895Z,100421.72
2022-11-03T06:52:40.485Z,100432.84
2022-11-03T06:55:15.780Z,100432.34
2022-11-03T06:57:49.423Z,100424.28
2022-11-03T07:00:38.573Z,100435.69
2022-11-03T07:03:28.537Z,100436.28
2022-11-03T07:06:15.775Z,100429.03
2022-11-03T07:08:55.532Z,100428.91
2022-11-03T07:11:28.753Z,100426.38
2022-11-03T07:14:16.190Z,100423.63
2022-11-03T07:17:23.355Z,100418.66
2022-11-03T07:19:53.335Z,100422.53
2022-11-03T07:22:28.260Z,100429.06
2022-11-03T07:25:03.960Z,100419.16
2022-11-03T07:27:41.227Z,100425.47
2022-11-03T07:30:34.434Z,100428.41
2022-11-03T07:33:18.755Z,100431.47
2022-11-03T07:36:20.261Z,100430.72
2022-11-03T07:38:42.790Z,100427.47
2022-11-03T07:41:21.889Z,100433.78
2022-11-03T07:43:59.568Z,100434.81
2022-11-03T07:46:29.554Z,100435.28
2022-11-03T07:49:03.782Z,100426.34
2022-11-03T07:51:38.219Z,100426.97
2022-11-03T07:54:32.679Z,100422.63
2022-11-03T07:57:31.326Z,100427.69
2022-11-03T08:00:21.093Z,100421.38
2022-11-03T08:03:00.967Z,100419.94
2022-11-03T08:05:30.548Z,100420.88
2022-11-03T08:08:00.080Z,100409.63
2022-11-03T08:10:29.863Z,100408.25
2022-11-03T08:12:59.739Z,100403.50
2022-11-03T08:15:32.199Z,100401.38
2022-11-03T08:18:01.768Z,100397.53
2022-11-03T08:20:31.296Z,100403.25
2022-11-03T08:23:26.982Z,100407.53
2022-11-03T08:25:50.281Z,100401.53
2022-11-03T08:28:19.871Z,100401.00
2022-11-03T08:30:50.849Z,100399.41
2022-11-03T08:33:20.591Z,100397.66
2022-11-03T08:35:50.221Z,100398.06
2022-11-03T08:38:19.826Z,100404.06
2022-11-03T08:40:54.321Z,100402.31
2022-11-03T08:43:25.639Z,100398.53
2022-11-03T08:45:55.559Z,100404.56
2022-11-03T08:48:27.890Z,100409.66
2022-11-03T08:50:57.472Z,100405.38
2022-11-03T08:53:28.050Z,100407.41
2022-11-03T08:55:57.678Z,100400.47
2022-11-03T08:58:27.318Z,100411.59
2022-11-03T09:00:56.801Z,100413.75
2022-11-03T09:03:26.435Z,100415.78
2022-11-03T09:05:55.172Z,100413.63
2022-11-03T09:11:14.105Z,100404.41
2022-11-03T09:13:43.680Z,100395.47
2022-11-03T09:16:13.146Z,100397.16
2022-11-03T09:18:42.727Z,100408.69
2022-11-03T09:21:12.352Z,100413.28
2022-11-03T09:23:41.936Z,100408.78
2022-11-03T09:26:11.397Z,100403.88
2022-11-03T09:28:40.994Z,100399.19
2022-11-03T09:31:10.564Z,100393.44
2022-11-03T09:33:40.137Z,100388.78
2022-11-03T09:36:09.997Z,100383.72
2022-11-03T09:38:39.490Z,100385.00
2022-11-03T09:41:18.761Z,100384.78
2022-11-03T09:43:59.291Z,100377.50
2022-11-03T09:46:30.887Z,100370.91
2022-11-03T09:49:00.706Z,100373.28
2022-11-03T09:51:30.712Z,100377.88
2022-11-03T09:54:05.081Z,100379.75
2022-11-03T09:56:37.749Z,100362.38
2022-11-03T09:59:23.389Z,100368.38
2022-11-03T10:01:54.973Z,100367.50
2022-11-03T10:04:29.490Z,100363.06
2022-11-03T10:07:00.110Z,100367.88
2022-11-03T10:09:30.563Z,100365.94
2022-11-03T10:12:00.255Z,100363.72
2022-11-03T10:14:29.821Z,100353.94
2022-11-03T10:17:00.718Z,100357.72
2022-11-03T10:19:31.272Z,100358.97
2022-11-03T10:22:00.886Z,100343.00
2022-11-03T10:24:30.482Z,100340.50
2022-11-03T10:26:59.918Z,100337.47
2022-11-03T10:29:31.589Z,100332.44
2022-11-03T10:32:03.287Z,100329.22
2022-11-03T10:34:41.947Z,100329.94
2022-11-03T10:37:23.278Z,100320.13
2022-11-03T10:39:58.038Z,100318.88
2022-11-03T10:42:35.409Z,100313.44
2022-11-03T10:45:21.914Z,100310.03
2022-11-03T10:48:05.849Z,100306.38
2022-11-03T10:50:35.821Z,100306.63
2022-11-03T10:53:05.862Z,100298.66
2022-11-03T10:55:35.748Z,100296.28
2022-11-03T10:58:06.872Z,100294.28
2022-11-03T11:00:35.762Z,100297.88
2022-11-03T11:03:08.157Z,100289.44
2022-11-03T11:05:47.472Z,100282.19
2022-11-03T11:08:23.765Z,100287.56
2022-11-03T11:10:55.289Z,100275.16
2022-11-03T11:13:27.611Z,100268.38
2022-11-03T11:16:02.905Z,100270.56
2022-11-03T11:18:32.380Z,100267.72
2022-11-03T11:21:24.884Z,100267.22
2022-11-03T11:23:54.401Z,100259.84
2022-11-03T11:26:26.006Z,100263.72
2022-11-03T11:29:11.268Z,100252.19
2022-11-03T11:31:42.668Z,100252.56
2022-11-03T11:34:17.457Z,100247.25
2022-11-03T11:36:53.994Z,100251.78
2022-11-03T11:39:31.253Z,100243.88
2022-11-03T11:42:17.627Z,100236.41
2022-11-03T11:44:46.061Z,100227.13
2022-11-03T11:47:29.710Z,100212.94
2022-11-03T11:50:10.933Z,100215.31
2022-11-03T11:52:50.796Z,100209.84
2022-11-03T11:55:44.203Z,100193.63
2022-11-03T11:58:30.617Z,100200.53
2022-11-03T12:01:31.586Z,100185.47
2022-11-03T12:07:14.258Z,100188.44
2022-11-03T12:09:45.463Z,100172.66
2022-11-03T12:12:34.439Z,100189.31
2022-11-03T12:15:04.400Z,100166.66
2022-11-03T12:17:34.444Z,100165.56
2022-11-03T12:20:44.367Z,100163.84
2022-11-03T12:23:41.302Z,100162.94
2022-11-03T12:26:27.912Z,100160.16
2022-11-03T12:28:57.599Z,100158.09
2022-11-03T12:31:26.307Z,100149.00
2022-11-03T12:33:55.777Z,100153.69
2022-11-03T12:36:24.606Z,100150.97
2022-11-03T12:38:54.231Z,100144.22
2022-11-03T12:41:24.573Z,100143.84
2022-11-03T12:43:57.573Z,100152.78
2022-11-03T12:46:26.289Z,100148.56
2022-11-03T12:48:56.172Z,100146.81
2022-11-03T12:51:26.382Z,100146.13
2022-11-03T12:53:55.076Z,100138.84
2022-11-03T12:56:25.127Z,100127.06
2022-11-03T12:58:54.730Z,100124.47
2022-11-03T13:01:24.441Z,100136.41
2022-11-03T13:03:54.039Z,100138.69
2022-11-03T13:06:23.522Z,100120.81
2022-11-03T13:08:53.696Z,100120.91
2022-11-03T13:11:41.976Z,100127.84
2022-11-03T13:14:12.459Z,100130.16
2022-11-03T13:16:41.988Z,100128.34
2022-11-03T13:19:11.532Z,100131.03
2022-11-03T13:21:41.100Z,100128.06
2022-11-03T13:24:10.796Z,100125.06
2022-11-03T13:26:40.337Z,100130.94
2022-11-03T13:29:09.886Z,100136.59
2022-11-03T13:31:39.549Z,100133.03
2022-11-03T13:34:09.018Z,100131.28
2022-11-03T13:36:38.468Z,100134.31
2022-11-03T13:39:08.105Z,100136.59
2022-11-03T13:41:37.637Z,100129.63
2022-11-03T13:44:08.846Z,100137.84
2022-11-03T13:46:38.466Z,100135.50
2022-11-03T13:49:52.206Z,100123.47
2022-11-03T13:51:57.557Z,100130.75
2022-11-03T14:00:45.300Z,100105.66
2022-11-03T14:06:44.823Z,100109.75
2022-11-03T14:12:44.023Z,100102.19
2022-11-03T14:15:34.794Z,100120.03
2022-11-03T14:18:04.439Z,100104.97
2022-11-03T14:20:33.941Z,100110.56
2022-11-03T14:23:03.742Z,100102.22
2022-11-03T14:25:33.711Z,100081.22
2022-11-03T14:28:03.905Z,100105.50
2022-11-03T14:30:33.510Z,100107.25
2022-11-03T14:33:03.036Z,100106.06
2022-11-03T14:35:32.601Z,100098.41
2022-11-03T14:38:02.206Z,100089.72
2022-11-03T14:40:50.100Z,100089.41
2022-11-03T14:43:19.728Z,100092.13
2022-11-03T14:45:49.323Z,100085.00
2022-11-03T14:48:18.912Z,100086.59
2022-11-03T14:50:48.518Z,100088.16
2022-11-03T14:53:20.048Z,100080.59
2022-11-03T14:55:49.715Z,100074.50
2022-11-03T14:58:20.941Z,100081.44
2022-11-03T15:00:50.539Z,100077.13
2022-11-03T15:03:19.407Z,100071.06
2022-11-03T15:05:49.653Z,100070.31
2022-11-03T15:08:19.858Z,100056.63
2022-11-03T15:10:50.143Z,100064.72
2022-11-03T15:13:19.831Z,100046.13
2022-11-03T15:15:49.635Z,100055.00
2022-11-03T15:18:18.718Z,100061.13
2022-11-03T15:20:48.554Z,100042.28
2022-11-03T15:26:10.610Z,100044.59
2022-11-03T15:28:43.682Z,100049.66
2022-11-03T15:31:13.875Z,100040.81
2022-11-03T15:33:43.425Z,100033.69
2022-11-03T15:36:12.148Z,100031.09
2022-11-03T15:38:41.886Z,100030.59
2022-11-03T15:41:17.476Z,100039.78
2022-11-03T15:43:51.217Z,100032.06
2022-11-03T15:46:20.981Z,100026.72
2022-11-03T15:48:50.846Z,100029.91
2022-11-03T15:51:19.568Z,100019.56
2022-11-03T15:53:52.304Z,100022.31
2022-11-03T15:56:27.861Z,100016.31
2022-11-03T15:58:57.524Z,100022.38
2022-11-03T16:01:29.690Z,100022.91
2022-11-03T16:03:59.986Z,100025.91
2022-11-03T16:06:53.898Z,100021.09
2022-11-03T16:09:18.437Z,100022.03
2022-11-03T16:11:48.017Z,100029.31
2022-11-03T16:14:18.340Z,100023.59
2022-11-03T16:16:48.041Z,100025.50
2022-11-03T16:19:18.313Z,100015.91
2022-11-03T16:21:46.179Z,100000.03
2022-11-03T16:24:15.926Z,100011.03
2022-11-03T16:26:45.925Z,100007.31
2022-11-03T16:29:13.829Z,100001.94
2022-11-03T16:31:44.425Z,99998.81
2022-11-03T16:34:16.567Z,99994.31
2022-11-03T16:36:48.302Z,99985.41
2022-11-03T16:39:16.252Z,99988.16
2022-11-03T16:41:45.827Z,99981.50
2022-11-03T16:44:15.382Z,99972.34
2022-11-03T16:46:44.965Z,99969.53
2022-11-03T16:49:12.725Z,99968.44
2022-11-03T16:51:46.321Z,99954.31
2022-11-03T16:54:16.043Z,99954.81
2022-11-03T16:56:49.428Z,99957.94
2022-11-03T16:59:23.556Z,99956.38
2022-11-03T17:01:53.857Z,99949.63
2022-11-03T17:04:21.936Z,99955.00
2022-11-03T17:06:51.628Z,99961.91
2022-11-03T17:09:22.270Z,99950.41
2022-11-03T17:11:51.802Z,99950.47
2022-11-03T17:14:21.438Z,99950.09
2022-11-03T17:16:51.062Z,99948.91
2022-11-03T17:19:19.799Z,99949.22
2022-11-03T17:21:49.342Z,99937.81
2022-11-03T17:24:17.300Z,99931.66
2022-11-03T17:27:20.366Z,99933.22
2022-11-03T17:30:01.623Z,99933.13
2022-11-03T17:32:42.291Z,99935.03
2022-11-03T17:35:42.179Z,99936.50
2022-11-03T17:38:17.688Z,99943.38
2022-11-03T17:40:48.369Z,99934.75
2022-11-03T17:43:27.548Z,99941.19
2022-11-03T17:45:58.999Z,99934.34
2022-11-03T17:48:30.367Z,99937.69
2022-11-03T17:51:05.386Z,99935.91
2022-11-03T17:53:34.587Z,99939.41
2022-11-03T17:56:28.497Z,99933.44
2022-11-03T17:58:53.787Z,99927.88
2022-11-03T18:01:27.655Z,99926.44
2022-11-03T18:03:55.724Z,99923.81
2022-11-03T18:06:23.494Z,99924.78
2022-11-03T18:08:53.258Z,99928.44
2022-11-03T18:11:47.894Z,99928.41
2022-11-03T18:14:21.215Z,99921.50
2022-11-03T18:16:52.502Z,99911.75
2022-11-03T18:19:20.707Z,99909.13
2022-11-03T18:21:50.348Z,99905.16
2022-11-03T18:24:21.946Z,99904.09
2022-11-03T18:26:49.947Z,99901.69
2022-11-03T18:29:19.769Z,99896.44
2022-11-03T18:31:50.873Z,99886.53
2022-11-03T18:34:25.414Z,99881.09
2022-11-03T18:36:54.598Z,99869.34
2022-11-03T18:39:27.629Z,99873.03
2022-11-03T18:41:57.194Z,99872.25
2022-11-03T18:44:30.338Z,99873.47
2022-11-03T18:46:59.940Z,99867.06
2022-11-03T18:49:34.080Z,99860.50
2022-11-03T18:52:14.871Z,99864.69
2022-11-03T18:54:53.969Z,99867.19
2022-11-03T18:57:27.899Z,99858.16
2022-11-03T18:59:57.907Z,99842.53
2022-11-03T19:02:31.060Z,99843.13
2022-11-03T19:05:00.575Z,99836.34
2022-11-03T19:07:33.201Z,99834.00
2022-11-03T19:10:15.667Z,99831.09
2022-11-03T19:12:46.761Z,99831.88
2022-11-03T19:15:24.928Z,99834.75
2022-11-03T19:17:58.021Z,99826.72
2022-11-03T19:20:26.625Z,99820.41
2022-11-03T19:22:56.457Z,99817.03
2022-11-03T19:25:26.236Z,99807.72
2022-11-03T19:27:55.777Z,99815.19
2022-11-03T19:30:24.439Z,99810.41
2022-11-03T19:32:56.855Z,99822.03
2022-11-03T19:35:36.245Z,99812.16
2022-11-03T19:38:16.479Z,99806.78
2022-11-03T19:41:05.960Z,99797.47
2022-11-03T19:43:35.531Z,99799.66
2022-11-03T19:46:06.097Z,99795.44
2022-11-03T19:48:35.868Z,99794.88
2022-11-03T19:51:07.633Z,99782.09
2022-11-03T19:53:37.736Z,99779.34
2022-11-03T19:56:09.271Z,99787.00
2022-11-03T19:58:40.413Z,99785.09
2022-11-03T20:01:10.028Z,99779.34
2022-11-03T20:03:39.933Z,99774.03
2022-11-03T20:06:09.527Z,99768.47
2022-11-03T20:08:38.731Z,99766.69
2022-11-03T20:11:07.753Z,99766.28
2022-11-03T20:13:43.365Z,99763.38
2022-11-03T20:16:17.832Z,99758.38
2022-11-03T20:18:48.963Z,99753.78
2022-11-03T20:21:20.342Z,99746.69
2022-11-03T20:23:51.046Z,99750.88
2022-11-03T20:26:23.491Z,99735.94
2022-11-03T20:28:57.680Z,99732.59
2022-11-03T20:31:27.262Z,99725.59
2022-11-03T20:33:56.797Z,99727.50
2022-11-03T20:36:27.348Z,99726.63
2022-11-03T20:38:59.686Z,99717.22
2022-11-03T20:41:32.460Z,99715.50
2022-11-03T20:44:05.062Z,99712.53
2022-11-03T20:46:34.829Z,99701.31
2022-11-03T20:49:07.590Z,99700.25
2022-11-03T20:51:44.870Z,99706.66
2022-11-03T20:54:21.069Z,99704.75
2022-11-03T20:56:51.061Z,99697.16
2022-11-03T20:59:24.866Z,99687.03
2022-11-03T21:01:54.656Z,99687.22
2022-11-03T21:04:22.739Z,99684.34
2022-11-03T21:06:53.871Z,99672.44
2022-11-03T21:09:22.738Z,99681.66
2022-11-03T21:11:53.887Z,99682.75
2022-11-03T21:14:31.641Z,99673.44
2022-11-03T21:17:22.721Z,99673.19
2022-11-03T21:20:09.629Z,99663.69
2022-11-03T21:22:52.807Z,99664.75
2022-11-03T21:25:25.280Z,99656.28
2022-11-03T21:27:56.259Z,99656.84
2022-11-03T21:30:25.764Z,99648.16
2022-11-03T21:32:55.330Z,99646.41
2022-11-03T21:35:27.853Z,99643.84
2022-11-03T21:37:57.452Z,99644.88
2022-11-03T21:40:27.169Z,99641.56
2022-11-03T21:43:15.417Z,99634.59
2022-11-03T21:45:45.501Z,99629.97
2022-11-03T21:48:33.499Z,99639.34
2022-11-03T21:51:03.538Z,99644.31
2022-11-03T21:53:33.262Z,99633.78
2022-11-03T21:56:03.066Z,99634.75
2022-11-03T21:58:31.124Z,99627.84
2022-11-03T22:01:05.346Z,99632.34
2022-11-03T22:03:39.680Z,99635.16
2022-11-03T22:06:11.840Z,99627.50
2022-11-03T22:08:45.293Z,99629.41
2022-11-03T22:11:24.543Z,99630.16
2022-11-03T22:14:00.952Z,99624.63
2022-11-03T22:16:38.040Z,99619.59
2022-11-03T22:19:40.302Z,99620.50
2022-11-03T22:22:34.076Z,99616.19
2022-11-03T22:25:27.620Z,99613.00
2022-11-03T22:27:56.489Z,99609.25
2022-11-03T22:30:42.623Z,99599.19
2022-11-03T22:33:13.681Z,99608.53
2022-11-03T22:36:01.918Z,99611.09
2022-11-03T22:38:50.155Z,99611.75
2022-11-03T22:41:38.229Z,99595.97
2022-11-03T22:44:26.332Z,99598.28
2022-11-03T22:46:55.935Z,99589.75
2022-11-03T22:49:25.969Z,99573.28
2022-11-03T22:51:55.503Z,99566.47
2022-11-03T22:54:24.990Z,99563.69
2022-11-03T22:56:54.651Z,99555.84
2022-11-03T22:59:24.424Z,99559.28
2022-11-03T23:01:54.262Z,99553.25
2022-11-03T23:04:26.575Z,99530.94
2022-11-03T23:06:58.783Z,99543.97
2022-11-03T23:09:28.488Z,99541.94
2022-11-03T23:11:57.925Z,99538.97
2022-11-03T23:14:47.525Z,99524.13
2022-11-03T23:17:17.154Z,99526.81
2022-11-03T23:20:04.984Z,99518.88
2022-11-03T23:22:34.445Z,99519.44
2022-11-03T23:25:04.235Z,99503.53
2022-11-03T23:27:32.910Z,99506.78
2022-11-03T23:30:04.841Z,99503.06
2022-11-03T23:32:33.521Z,99512.91
2022-11-03T23:35:04.679Z,99512.16
2022-11-03T23:37:33.426Z,99503.06
2022-11-03T23:40:03.025Z,99496.72
2022-11-03T23:42:32.738Z,99493.38
2022-11-03T23:45:20.777Z,99491.84
2022-11-03T23:48:09.130Z,99499.91
2022-11-03T23:50:39.847Z,99489.28
2022-11-03T23:53:08.537Z,99501.34
2022-11-03T23:55:56.801Z,99499.41
2022-11-03T23:58:26.303Z,99495.47
